createdAt,value
2022-11-27T00:01:24.762Z,86.40
2022-11-27T00:03:51.928Z,86.40
2022-11-27T00:06:21.933Z,86.40
2022-11-27T00:08:52.181Z,86.30
2022-11-27T00:11:24.414Z,86.40
2022-11-27T00:13:57.401Z,86.30
2022-11-27T00:16:26.004Z,86.20
2022-11-27T00:18:53.100Z,86.30
2022-11-27T00:21:26.532Z,86.20
2022-11-27T00:23:54.989Z,86.10
2022-11-27T00:26:22.702Z,86.10
2022-11-27T00:28:49.700Z,86.10
2022-11-27T00:31:30.310Z,86.10
2022-11-27T00:34:05.397Z,86.00
2022-11-27T00:36:33.948Z,86.10
2022-11-27T00:39:01.439Z,86.10
2022-11-27T00:41:29.986Z,86.10
2022-11-27T00:43:57.291Z,86.00
2022-11-27T00:46:28.971Z,86.00
2022-11-27T00:49:00.372Z,86.10
2022-11-27T00:51:28.349Z,86.00
2022-11-27T00:53:55.759Z,86.00
2022-11-27T00:56:28.889Z,86.10
2022-11-27T00:58:56.163Z,86.10
2022-11-27T01:01:25.859Z,86.10
2022-11-27T01:03:52.714Z,86.20
2022-11-27T01:06:21.070Z,86.20
2022-11-27T01:08:48.528Z,86.10
2022-11-27T01:11:21.404Z,86.10
2022-11-27T01:13:49.445Z,86.20
2022-11-27T01:16:20.126Z,86.10
2022-11-27T01:18:48.397Z,86.20
2022-11-27T01:21:17.694Z,86.20
2022-11-27T01:23:48.525Z,86.10
2022-11-27T01:26:17.646Z,86.10
2022-11-27T01:28:48.044Z,86.10
2022-11-27T01:31:20.095Z,86.20
2022-11-27T01:33:47.697Z,86.30
2022-11-27T01:36:15.868Z,86.30
2022-11-27T01:38:42.954Z,86.30
2022-11-27T01:41:18.763Z,86.30
2022-11-27T01:43:53.024Z,86.30
2022-11-27T01:46:19.926Z,86.30
2022-11-27T01:48:49.637Z,86.30
2022-11-27T01:51:16.657Z,86.30
2022-11-27T01:53:43.550Z,86.20
2022-11-27T01:56:14.000Z,86.10
2022-11-27T01:58:41.393Z,86.20
2022-11-27T02:01:08.122Z,86.20
2022-11-27T02:03:34.868Z,86.20
2022-11-27T02:06:01.678Z,86.10
2022-11-27T02:08:28.556Z,86.20
2022-11-27T02:11:21.020Z,86.10
2022-11-27T02:14:03.087Z,86.20
2022-11-27T02:16:33.159Z,86.10
2022-11-27T02:19:30.516Z,86.20
2022-11-27T02:22:08.070Z,86.10
2022-11-27T02:24:58.694Z,86.30
2022-11-27T02:27:39.102Z,86.30
2022-11-27T02:30:07.001Z,86.30
2022-11-27T02:32:43.964Z,86.30
2022-11-27T02:35:25.327Z,86.50
2022-11-27T02:38:01.059Z,86.50
2022-11-27T02:40:36.149Z,86.50
2022-11-27T02:43:15.730Z,86.50
2022-11-27T02:45:45.290Z,86.50
2022-11-27T02:48:14.662Z,86.40
2022-11-27T02:50:45.058Z,86.50
2022-11-27T02:53:23.427Z,86.50
2022-11-27T02:55:52.303Z,86.50
2022-11-27T02:58:23.572Z,86.60
2022-11-27T03:00:52.253Z,86.60
2022-11-27T03:03:23.447Z,86.50
2022-11-27T03:05:54.919Z,86.50
2022-11-27T03:08:38.464Z,86.50
2022-11-27T03:11:08.255Z,86.50
2022-11-27T03:13:45.519Z,87.30
2022-11-27T03:16:26.829Z,86.40
2022-11-27T03:19:06.092Z,86.40
2022-11-27T03:21:38.877Z,86.40
2022-11-27T03:24:07.614Z,86.30
2022-11-27T03:26:34.985Z,86.30
2022-11-27T03:29:03.786Z,86.30
2022-11-27T03:31:31.387Z,86.30
2022-11-27T03:33:58.721Z,86.20
2022-11-27T03:36:25.519Z,86.10
2022-11-27T03:38:54.168Z,86.10
2022-11-27T03:42:00.857Z,86.10
2022-11-27T03:44:36.937Z,86.00
2022-11-27T03:47:28.547Z,86.10
2022-11-27T03:50:32.222Z,85.90
2022-11-27T03:53:04.722Z,85.90
2022-11-27T03:56:12.128Z,85.90
2022-11-27T03:58:52.236Z,85.90
2022-11-27T04:01:22.844Z,85.80
2022-11-27T04:03:51.557Z,85.80
2022-11-27T04:06:19.704Z,85.80
2022-11-27T04:08:48.693Z,85.80
2022-11-27T04:11:15.783Z,85.70
2022-11-27T04:13:42.492Z,85.70
2022-11-27T04:16:09.364Z,85.60
2022-11-27T04:18:36.207Z,86.50
2022-11-27T04:21:03.324Z,85.70
2022-11-27T04:23:30.083Z,85.60
2022-11-27T04:25:56.939Z,85.60
2022-11-27T04:28:23.715Z,85.60
2022-11-27T04:30:54.959Z,85.60
2022-11-27T04:33:22.319Z,85.50
2022-11-27T04:35:49.853Z,85.50
2022-11-27T04:38:16.987Z,85.40
2022-11-27T04:40:43.823Z,85.40
2022-11-27T04:43:13.158Z,85.40
2022-11-27T04:45:41.243Z,85.30
2022-11-27T04:48:08.026Z,85.40
2022-11-27T04:50:34.724Z,85.30
2022-11-27T04:53:01.711Z,85.30
2022-11-27T04:55:28.610Z,85.20
2022-11-27T04:57:55.399Z,85.20
2022-11-27T05:00:22.275Z,85.10
2022-11-27T05:02:49.184Z,85.10
2022-11-27T05:05:17.248Z,85.10
2022-11-27T05:07:44.169Z,85.10
2022-11-27T05:10:11.206Z,85.00
2022-11-27T05:12:37.973Z,85.00
2022-11-27T05:15:08.256Z,85.10
2022-11-27T05:17:35.045Z,84.90
2022-11-27T05:20:04.555Z,85.80
2022-11-27T05:22:31.428Z,84.90
2022-11-27T05:24:58.236Z,84.80
2022-11-27T05:27:25.654Z,84.80
2022-11-27T05:32:33.074Z,84.80
2022-11-27T05:34:59.778Z,84.70
2022-11-27T05:37:26.475Z,84.70
2022-11-27T05:39:53.382Z,84.60
2022-11-27T05:42:20.121Z,85.60
2022-11-27T05:44:46.821Z,84.70
2022-11-27T05:47:13.542Z,84.70
2022-11-27T05:49:44.991Z,84.60
2022-11-27T05:52:11.718Z,84.60
2022-11-27T05:54:38.712Z,84.50
2022-11-27T05:57:05.730Z,84.50
2022-11-27T05:59:32.529Z,84.40
2022-11-27T06:01:59.493Z,84.50
2022-11-27T06:04:26.309Z,84.40
2022-11-27T06:06:53.026Z,84.40
2022-11-27T06:09:19.878Z,84.40
2022-11-27T06:11:49.233Z,84.40
2022-11-27T06:14:17.125Z,84.30
2022-11-27T06:16:43.930Z,84.30
2022-11-27T06:19:10.768Z,84.30
2022-11-27T06:21:37.674Z,84.30
2022-11-27T06:24:04.539Z,84.30
2022-11-27T06:26:33.112Z,85.10
2022-11-27T06:29:01.249Z,84.30
2022-11-27T06:31:30.976Z,84.30
2022-11-27T06:33:58.634Z,84.30
2022-11-27T06:36:29.223Z,84.40
2022-11-27T06:38:56.039Z,84.30
2022-11-27T06:41:24.779Z,84.20
2022-11-27T06:43:51.574Z,84.30
2022-11-27T06:46:20.530Z,84.20
2022-11-27T06:48:52.498Z,84.20
2022-11-27T06:51:24.850Z,84.30
2022-11-27T06:53:52.595Z,84.20
2022-11-27T06:56:23.277Z,84.20
2022-11-27T06:58:58.418Z,84.30
2022-11-27T07:01:27.234Z,84.30
2022-11-27T07:03:54.085Z,84.30
2022-11-27T07:06:23.416Z,84.40
2022-11-27T07:08:50.761Z,84.40
2022-11-27T07:11:20.147Z,84.40
2022-11-27T07:13:48.568Z,84.30
2022-11-27T07:16:19.071Z,84.40
2022-11-27T07:18:51.906Z,84.50
2022-11-27T07:21:19.390Z,84.50
2022-11-27T07:23:46.444Z,84.50
2022-11-27T07:26:15.835Z,84.60
2022-11-27T07:28:46.032Z,84.60
2022-11-27T07:31:14.966Z,84.80
2022-11-27T07:33:41.804Z,84.80
2022-11-27T07:36:15.363Z,84.80
2022-11-27T07:38:43.017Z,84.80
2022-11-27T07:41:10.296Z,85.00
2022-11-27T07:43:37.504Z,85.00
2022-11-27T07:46:06.494Z,85.10
2022-11-27T07:48:33.525Z,85.10
2022-11-27T07:51:00.555Z,85.10
2022-11-27T07:53:27.399Z,85.10
2022-11-27T07:55:54.191Z,85.30
2022-11-27T07:58:24.056Z,85.40
2022-11-27T08:00:50.743Z,85.30
2022-11-27T08:03:19.738Z,85.40
2022-11-27T08:05:46.653Z,86.30
2022-11-27T08:08:13.403Z,85.60
2022-11-27T08:10:40.710Z,85.70
2022-11-27T08:13:07.749Z,85.70
2022-11-27T08:15:34.837Z,85.70
2022-11-27T08:18:01.561Z,85.80
2022-11-27T08:20:28.798Z,85.90
2022-11-27T08:22:59.641Z,85.90
2022-11-27T08:25:29.544Z,85.90
2022-11-27T08:27:56.321Z,85.90
2022-11-27T08:30:26.254Z,86.00
2022-11-27T08:32:53.033Z,86.00
2022-11-27T08:35:19.954Z,86.00
2022-11-27T08:37:49.576Z,86.10
2022-11-27T08:40:16.374Z,86.10
2022-11-27T08:42:43.251Z,86.10
2022-11-27T08:45:10.675Z,86.00
2022-11-27T08:47:37.554Z,86.10
2022-11-27T08:50:04.609Z,86.00
2022-11-27T08:52:32.365Z,86.10
2022-11-27T08:54:59.252Z,86.10
2022-11-27T08:57:29.117Z,86.10
2022-11-27T08:59:55.905Z,86.20
2022-11-27T09:02:23.841Z,86.20
2022-11-27T09:04:50.542Z,86.20
2022-11-27T09:07:20.119Z,86.10
2022-11-27T09:09:46.911Z,86.10
2022-11-27T09:12:13.836Z,86.30
2022-11-27T09:14:40.874Z,86.30
2022-11-27T09:17:07.859Z,87.00
2022-11-27T09:19:34.682Z,86.20
2022-11-27T09:22:01.595Z,86.30
2022-11-27T09:24:29.507Z,86.30
2022-11-27T09:26:56.322Z,86.40
2022-11-27T09:29:27.965Z,86.30
2022-11-27T09:31:54.933Z,86.30
2022-11-27T09:34:24.783Z,86.30
2022-11-27T09:36:51.519Z,86.30
2022-11-27T09:39:19.639Z,86.30
2022-11-27T09:41:53.594Z,86.50
2022-11-27T09:44:26.098Z,86.40
2022-11-27T09:46:57.342Z,86.40
2022-11-27T09:49:36.502Z,86.40
2022-11-27T09:52:15.130Z,86.40
2022-11-27T09:54:57.463Z,86.40
2022-11-27T09:57:32.725Z,86.50
2022-11-27T10:00:04.919Z,86.60
2022-11-27T10:02:33.560Z,86.50
2022-11-27T10:05:13.746Z,86.70
2022-11-27T10:07:53.296Z,86.70
2022-11-27T10:10:34.855Z,86.70
2022-11-27T10:13:30.652Z,86.80
2022-11-27T10:16:09.013Z,86.90
2022-11-27T10:18:43.407Z,86.90
2022-11-27T10:21:27.553Z,86.90
2022-11-27T10:24:23.676Z,86.80
2022-11-27T10:26:53.344Z,86.90
2022-11-27T10:29:47.289Z,87.00
2022-11-27T10:32:53.643Z,86.90
2022-11-27T10:35:13.375Z,87.00
2022-11-27T10:37:45.925Z,87.00
2022-11-27T10:40:12.968Z,87.20
2022-11-27T10:42:59.061Z,87.00
2022-11-27T10:45:49.230Z,87.00
2022-11-27T10:48:16.974Z,87.10
2022-11-27T10:50:45.866Z,87.00
2022-11-27T10:53:19.608Z,87.20
2022-11-27T10:56:01.512Z,87.30
2022-11-27T10:58:36.741Z,87.10
2022-11-27T11:01:14.055Z,87.20
2022-11-27T11:03:40.915Z,87.20
2022-11-27T11:06:26.847Z,87.20
2022-11-27T11:09:15.207Z,87.10
2022-11-27T11:11:42.002Z,87.10
2022-11-27T11:14:26.504Z,87.20
2022-11-27T11:16:54.851Z,87.20
2022-11-27T11:19:33.914Z,87.10
2022-11-27T11:23:06.251Z,87.10
2022-11-27T11:25:35.599Z,86.90
2022-11-27T11:28:02.965Z,87.00
2022-11-27T11:30:30.287Z,87.00
2022-11-27T11:33:02.298Z,87.00
2022-11-27T11:35:34.759Z,86.90
2022-11-27T11:38:05.262Z,87.00
2022-11-27T11:40:34.468Z,87.00
2022-11-27T11:43:10.060Z,87.00
2022-11-27T11:45:47.430Z,87.10
2022-11-27T11:48:28.283Z,87.00
2022-11-27T11:51:21.860Z,87.00
2022-11-27T11:54:12.626Z,86.80
2022-11-27T11:56:44.856Z,86.90
2022-11-27T11:59:45.400Z,86.90
2022-11-27T12:02:27.520Z,86.90
2022-11-27T12:05:03.634Z,86.90
2022-11-27T12:08:03.430Z,87.00
2022-11-27T12:10:53.367Z,86.70
2022-11-27T12:13:23.211Z,86.70
2022-11-27T12:15:49.882Z,86.80
2022-11-27T12:18:25.543Z,86.80
2022-11-27T12:21:17.475Z,86.70
2022-11-27T12:24:11.912Z,86.70
2022-11-27T12:27:08.161Z,86.80
2022-11-27T12:29:40.946Z,86.70
2022-11-27T12:32:24.590Z,86.70
2022-11-27T12:35:02.177Z,86.60
2022-11-27T12:37:44.051Z,86.50
2022-11-27T12:40:26.056Z,86.50
2022-11-27T12:43:01.311Z,86.50
2022-11-27T12:45:35.285Z,86.60
2022-11-27T12:48:11.657Z,86.50
2022-11-27T12:50:54.038Z,86.50
2022-11-27T12:53:48.667Z,86.40
2022-11-27T12:56:26.388Z,86.50
2022-11-27T12:59:15.239Z,86.50
2022-11-27T13:01:47.770Z,86.60
2022-11-27T13:04:35.068Z,86.70
2022-11-27T13:07:17.024Z,86.60
2022-11-27T13:09:58.125Z,86.70
2022-11-27T13:12:30.025Z,86.60
2022-11-27T13:15:06.621Z,86.60
2022-11-27T13:17:41.648Z,86.60
2022-11-27T13:20:36.840Z,86.50
2022-11-27T13:23:04.176Z,86.40
2022-11-27T13:25:34.521Z,86.50
2022-11-27T13:28:07.376Z,86.50
2022-11-27T13:30:37.122Z,86.50
2022-11-27T13:33:06.426Z,86.60
2022-11-27T13:35:43.277Z,86.70
2022-11-27T13:38:26.247Z,86.70
2022-11-27T13:40:58.700Z,86.70
2022-11-27T13:43:43.869Z,86.70
2022-11-27T13:46:25.367Z,86.60
2022-11-27T13:48:56.398Z,86.70
2022-11-27T13:51:36.608Z,86.60
2022-11-27T13:54:11.008Z,86.60
2022-11-27T13:56:38.798Z,86.70
2022-11-27T13:59:21.155Z,86.70
2022-11-27T14:02:14.097Z,86.70
2022-11-27T14:04:55.914Z,86.70
2022-11-27T14:07:26.738Z,86.70
2022-11-27T14:09:56.379Z,86.70
2022-11-27T14:12:30.493Z,86.70
2022-11-27T14:15:05.030Z,87.30
2022-11-27T14:17:42.876Z,87.10
2022-11-27T14:20:21.474Z,87.10
2022-11-27T14:23:11.248Z,87.10
2022-11-27T14:25:39.827Z,87.20
2022-11-27T14:28:21.891Z,87.20
2022-11-27T14:30:58.564Z,87.20
2022-11-27T14:33:31.264Z,87.10
2022-11-27T14:36:00.410Z,87.20
2022-11-27T14:38:29.186Z,87.30
2022-11-27T14:41:15.077Z,87.30
2022-11-27T14:43:42.014Z,87.20
2022-11-27T14:46:17.007Z,87.20
2022-11-27T14:48:47.480Z,87.20
2022-11-27T14:51:18.238Z,87.20
2022-11-27T14:53:50.710Z,87.30
2022-11-27T14:56:18.106Z,87.20
2022-11-27T14:58:53.804Z,87.20
2022-11-27T15:01:29.432Z,87.20
2022-11-27T15:04:05.618Z,87.00
2022-11-27T15:06:40.117Z,87.00
2022-11-27T15:09:30.615Z,87.10
2022-11-27T15:11:58.599Z,87.00
2022-11-27T15:14:28.599Z,87.00
2022-11-27T15:16:57.073Z,87.00
2022-11-27T15:19:31.443Z,86.90
2022-11-27T15:21:58.873Z,86.90
2022-11-27T15:24:37.077Z,86.80
2022-11-27T15:27:20.108Z,86.80
2022-11-27T15:29:49.918Z,86.80
2022-11-27T15:32:23.974Z,86.80
2022-11-27T15:34:52.119Z,86.80
2022-11-27T15:37:27.551Z,86.80
2022-11-27T15:39:56.538Z,86.70
2022-11-27T15:42:23.310Z,86.60
2022-11-27T15:44:54.299Z,86.60
2022-11-27T15:47:31.190Z,86.60
2022-11-27T15:49:59.364Z,86.60
2022-11-27T15:52:27.335Z,86.60
2022-11-27T15:54:55.465Z,86.60
2022-11-27T15:57:23.007Z,86.50
2022-11-27T15:59:49.749Z,86.50
2022-11-27T16:02:18.380Z,86.50
2022-11-27T16:04:45.178Z,86.40
2022-11-27T16:07:11.988Z,86.50
2022-11-27T16:09:39.878Z,86.40
2022-11-27T16:12:07.090Z,86.30
2022-11-27T16:14:35.875Z,86.40
2022-11-27T16:17:02.647Z,86.30
2022-11-27T16:19:30.047Z,86.30
2022-11-27T16:21:56.938Z,86.20
2022-11-27T16:24:23.919Z,86.10
2022-11-27T16:26:50.811Z,86.20
2022-11-27T16:29:17.757Z,86.10
2022-11-27T16:31:44.669Z,86.10
2022-11-27T16:34:11.494Z,86.10
2022-11-27T16:36:43.878Z,86.00
2022-11-27T16:39:13.852Z,86.10
2022-11-27T16:41:40.630Z,86.00
2022-11-27T16:44:11.477Z,86.00
2022-11-27T16:46:39.082Z,85.90
2022-11-27T16:49:06.606Z,86.00
2022-11-27T16:51:35.122Z,85.80
2022-11-27T16:54:04.568Z,85.90
2022-11-27T16:56:33.496Z,85.90
2022-11-27T16:59:03.097Z,85.90
2022-11-27T17:01:34.323Z,85.80
2022-11-27T17:04:05.627Z,85.90
2022-11-27T17:06:34.064Z,85.80
2022-11-27T17:09:03.322Z,85.80
2022-11-27T17:11:33.883Z,85.80
2022-11-27T17:14:03.723Z,85.90
2022-11-27T17:16:30.659Z,85.80
2022-11-27T17:18:57.442Z,85.80
2022-11-27T17:21:27.735Z,85.90
2022-11-27T17:23:56.457Z,85.90
2022-11-27T17:26:25.472Z,85.90
2022-11-27T17:28:56.160Z,85.90
2022-11-27T17:31:35.588Z,85.90
2022-11-27T17:34:04.021Z,86.00
2022-11-27T17:36:36.555Z,86.00
2022-11-27T17:39:05.535Z,86.00
2022-11-27T17:41:35.194Z,86.00
2022-11-27T17:44:08.412Z,86.00
2022-11-27T17:46:36.975Z,86.00
2022-11-27T17:49:05.891Z,86.10
2022-11-27T17:51:35.155Z,86.10
2022-11-27T17:54:03.163Z,86.10
2022-11-27T17:56:32.539Z,86.10
2022-11-27T17:59:02.365Z,86.20
2022-11-27T18:01:30.202Z,86.20
2022-11-27T18:04:00.483Z,86.20
2022-11-27T18:06:27.781Z,86.30
2022-11-27T18:08:56.594Z,86.30
2022-11-27T18:11:26.061Z,86.40
2022-11-27T18:13:52.905Z,86.40
2022-11-27T18:16:41.372Z,86.40
2022-11-27T18:19:10.634Z,86.50
2022-11-27T18:21:38.564Z,86.50
2022-11-27T18:24:23.435Z,86.50
2022-11-27T18:29:39.837Z,86.50
2022-11-27T18:32:07.148Z,86.60
2022-11-27T18:34:34.412Z,86.70
2022-11-27T18:37:08.995Z,86.70
2022-11-27T18:39:36.872Z,86.70
2022-11-27T18:42:35.751Z,86.80
2022-11-27T18:48:39.119Z,87.00
2022-11-27T18:51:24.643Z,87.00
2022-11-27T18:53:55.890Z,87.10
2022-11-27T18:56:25.448Z,87.10
2022-11-27T18:58:53.993Z,87.20
2022-11-27T19:01:24.098Z,87.30
2022-11-27T19:03:51.425Z,87.30
2022-11-27T19:06:19.926Z,87.30
2022-11-27T19:08:49.721Z,87.40
2022-11-27T19:11:20.142Z,87.50
2022-11-27T19:13:48.298Z,87.50
2022-11-27T19:16:21.017Z,87.60
2022-11-27T19:18:48.079Z,87.70
2022-11-27T19:21:18.308Z,87.60
2022-11-27T19:23:45.321Z,87.80
2022-11-27T19:26:15.130Z,87.80
2022-11-27T19:28:43.510Z,87.80
2022-11-27T19:31:12.821Z,87.80
2022-11-27T19:33:40.026Z,87.90
2022-11-27T19:36:10.362Z,87.90
2022-11-27T19:38:39.131Z,88.00
2022-11-27T19:41:17.807Z,88.00
2022-11-27T19:43:45.482Z,88.00
2022-11-27T19:46:27.100Z,88.10
2022-11-27T19:49:02.014Z,88.20
2022-11-27T19:51:33.116Z,88.20
2022-11-27T19:54:02.596Z,88.20
2022-11-27T19:56:34.878Z,88.30
2022-11-27T19:59:02.230Z,88.20
2022-11-27T20:01:29.262Z,88.20
2022-11-27T20:03:56.265Z,88.30
2022-11-27T20:06:27.905Z,88.40
2022-11-27T20:09:01.601Z,88.40
2022-11-27T20:11:34.196Z,88.40
2022-11-27T20:14:08.293Z,88.50
2022-11-27T20:16:36.222Z,88.50
2022-11-27T20:19:09.765Z,88.50
2022-11-27T20:21:40.206Z,88.50
2022-11-27T20:24:06.981Z,88.50
2022-11-27T20:26:37.079Z,88.60
2022-11-27T20:29:05.472Z,89.40
2022-11-27T20:31:35.577Z,88.70
2022-11-27T20:34:05.008Z,88.70
2022-11-27T20:36:34.038Z,88.70
2022-11-27T20:39:01.693Z,88.80
2022-11-27T20:41:29.170Z,88.80
2022-11-27T20:43:58.803Z,88.90
2022-11-27T20:46:28.874Z,88.90
2022-11-27T20:48:56.426Z,88.80
2022-11-27T20:51:30.826Z,89.00
2022-11-27T20:54:01.776Z,89.00
2022-11-27T20:56:29.888Z,89.00
2022-11-27T20:58:58.157Z,89.00
2022-11-27T21:01:29.809Z,89.00
2022-11-27T21:03:58.110Z,89.10
2022-11-27T21:06:28.588Z,89.10
2022-11-27T21:08:55.577Z,89.20
2022-11-27T21:11:27.470Z,89.20
2022-11-27T21:14:00.120Z,89.20
2022-11-27T21:16:29.335Z,89.20
2022-11-27T21:19:01.320Z,89.30
2022-11-27T21:21:29.108Z,89.30
2022-11-27T21:23:56.973Z,89.40
2022-11-27T21:26:24.276Z,89.30
2022-11-27T21:28:54.146Z,89.40
2022-11-27T21:31:24.321Z,89.40
2022-11-27T21:33:56.493Z,89.60
2022-11-27T21:36:25.693Z,89.40
2022-11-27T21:38:52.683Z,89.60
2022-11-27T21:41:20.084Z,89.50
2022-11-27T21:43:56.749Z,89.70
2022-11-27T21:46:25.274Z,89.70
2022-11-27T21:48:53.502Z,89.60
2022-11-27T21:51:21.109Z,89.50
2022-11-27T21:53:50.373Z,89.60
2022-11-27T21:56:19.617Z,89.70
2022-11-27T21:58:46.814Z,89.70
2022-11-27T22:01:16.355Z,89.70
2022-11-27T22:03:43.631Z,89.70
2022-11-27T22:06:13.182Z,89.70
2022-11-27T22:08:44.165Z,90.20
2022-11-27T22:11:16.909Z,89.70
2022-11-27T22:13:44.017Z,89.70
2022-11-27T22:16:13.683Z,89.80
2022-11-27T22:18:43.740Z,89.80
2022-11-27T22:21:12.657Z,89.80
2022-11-27T22:23:43.595Z,89.80
2022-11-27T22:26:18.268Z,89.90
2022-11-27T22:28:48.154Z,89.70
2022-11-27T22:31:31.093Z,89.70
2022-11-27T22:33:58.122Z,89.90
2022-11-27T22:36:35.416Z,89.80
2022-11-27T22:39:05.408Z,89.80
2022-11-27T22:41:36.318Z,89.90
2022-11-27T22:44:14.636Z,89.70
2022-11-27T22:46:42.525Z,89.80
2022-11-27T22:49:11.782Z,89.80
2022-11-27T22:51:38.903Z,89.80
2022-11-27T22:54:08.195Z,89.80
2022-11-27T22:56:35.964Z,89.80
2022-11-27T22:59:30.977Z,89.90
2022-11-27T23:01:50.859Z,89.90
2022-11-27T23:04:17.798Z,89.90
2022-11-27T23:06:48.207Z,89.80
2022-11-27T23:09:17.792Z,89.90
2022-11-27T23:11:45.037Z,89.70
2022-11-27T23:14:14.710Z,89.90
2022-11-27T23:16:41.581Z,89.80
2022-11-27T23:19:09.732Z,90.00
2022-11-27T23:21:38.639Z,89.90
2022-11-27T23:24:06.919Z,89.80
2022-11-27T23:26:33.922Z,89.80
2022-11-27T23:29:00.805Z,89.80
2022-11-27T23:31:31.192Z,89.80
2022-11-27T23:33:59.424Z,89.80
2022-11-27T23:36:26.757Z,89.80
2022-11-27T23:38:53.926Z,89.70
2022-11-27T23:41:25.051Z,89.70
2022-11-27T23:43:53.482Z,89.70
2022-11-27T23:46:26.423Z,89.70
2022-11-27T23:48:58.254Z,89.70
2022-11-27T23:51:28.164Z,89.70
2022-11-27T23:53:55.485Z,89.80
2022-11-27T23:56:27.825Z,89.70
2022-11-27T23:58:55.798Z,89.70
